TIST/STT METAR and TAF weather

Enter ICAO airport designator
Station Type Date Time Source
TIST METAR 2021/05/11 15:53 UTC NOAA

TIST 111553Z 12012G16KT 10SM BKN029 OVC045 29/22 A3007 RMK AO2 RAB1455E1457 SLP182 P0000 T02890217 $


Station Type Date Time Source
TIST Decoded METAR 2021/05/11 15:53 UTC NOAA

Charlotte Amalie St. Thomas, Cyril E. King Airport, Virgin Islands (TIST) 18-20N 064-59W
May 11, 2021 - 11:53 AM EDT / 2021.05.11 1553 UTC
Wind: from the ESE (120 degrees) at 14 MPH (12 KT) gusting to 18 MPH (16 KT):0
Visibility: 10 mile(s):0
Sky conditions: overcast
Precipitation last hour: A trace
Temperature: 84.0 F (28.9 C)
Dew Point: 71.1 F (21.7 C)
Relative Humidity: 65%
Pressure (altimeter): 30.07 in. Hg (1018 hPa)
ob: TIST 111553Z 12012G16KT 10SM BKN029 OVC045 29/22 A3007 RMK AO2 RAB1455E1457 SLP182 P0000 T02890217
cycle: 16

Station Type Date Time Source
TIST TAF 2021/05/11 12:47 UTC NOAA

TAF TIST 111138Z 1112/1212 09012KT P6SM SCT025 BKN060
FM111630 11015KT P6SM VCSH SCT030 SCT050
FM112200 09010KT P6SM VCSH SCT030 SCT050

Example: see airport list